createdAt,value
2023-03-26T00:01:10.989Z,94340.00
2023-03-26T00:05:11.129Z,94339.00
2023-03-26T00:09:11.194Z,94333.00
2023-03-26T00:13:11.325Z,94327.00
2023-03-26T00:17:11.414Z,94333.00
2023-03-26T00:21:11.492Z,94327.00
2023-03-26T00:25:11.613Z,94329.00
2023-03-26T00:29:11.747Z,94333.00
2023-03-26T00:33:11.932Z,94337.00
2023-03-26T00:37:11.959Z,94335.00
2023-03-26T00:41:12.013Z,94313.00
2023-03-26T00:45:12.089Z,94313.00
2023-03-26T00:49:12.197Z,94319.00
2023-03-26T00:53:12.301Z,94317.00
2023-03-26T00:57:14.910Z,94311.00
2023-03-26T01:01:13.538Z,94311.00
2023-03-26T01:05:12.494Z,94303.00
2023-03-26T01:09:12.339Z,94297.00
2023-03-26T01:13:12.329Z,94295.00
2023-03-26T01:17:12.474Z,94291.00
2023-03-26T01:21:12.634Z,94291.00
2023-03-26T01:25:12.737Z,94301.00
2023-03-26T01:29:12.901Z,94303.00
2023-03-26T01:33:13.082Z,94284.00
2023-03-26T01:37:13.153Z,94284.00
2023-03-26T01:41:13.238Z,94274.00
2023-03-26T01:45:13.317Z,94278.00
2023-03-26T01:49:13.823Z,94276.00
2023-03-26T01:53:13.576Z,94274.00
2023-03-26T01:57:13.699Z,94276.00
2023-03-26T02:01:13.872Z,94282.00
2023-03-26T02:05:13.998Z,94278.00
2023-03-26T02:09:14.121Z,94280.00
2023-03-26T02:13:14.247Z,94289.00
2023-03-26T02:17:14.367Z,94291.00
2023-03-26T02:21:14.497Z,94289.00
2023-03-26T02:25:14.593Z,94282.00
2023-03-26T02:29:14.671Z,94282.00
2023-03-26T02:33:14.771Z,94282.00
2023-03-26T02:37:14.867Z,94280.00
2023-03-26T02:41:14.964Z,94276.00
2023-03-26T02:45:15.760Z,94274.00
2023-03-26T02:49:15.175Z,94268.00
2023-03-26T02:53:15.243Z,94268.00
2023-03-26T02:57:15.445Z,94272.00
2023-03-26T03:01:15.626Z,94268.00
2023-03-26T03:05:15.721Z,94262.00
2023-03-26T03:09:15.903Z,94260.00
2023-03-26T03:13:15.994Z,94254.00
2023-03-26T03:17:16.148Z,94244.00
2023-03-26T03:21:16.280Z,94242.00
2023-03-26T03:25:16.428Z,94244.00
2023-03-26T03:29:16.563Z,94233.00
2023-03-26T03:33:16.688Z,94231.00
2023-03-26T03:37:16.806Z,94225.00
2023-03-26T03:41:17.014Z,94227.00
2023-03-26T03:45:17.092Z,94227.00
2023-03-26T03:49:17.173Z,94229.00
2023-03-26T03:53:17.304Z,94225.00
2023-03-26T03:57:17.454Z,94217.00
2023-03-26T04:01:17.568Z,94205.00
2023-03-26T04:05:17.653Z,94203.00
2023-03-26T04:09:17.824Z,94215.00
2023-03-26T04:13:17.925Z,94211.00
2023-03-26T04:17:18.031Z,94209.00
2023-03-26T04:21:18.178Z,94205.00
2023-03-26T04:25:18.269Z,94199.00
2023-03-26T04:29:18.424Z,94186.00
2023-03-26T04:33:18.576Z,94174.00
2023-03-26T04:37:18.689Z,94178.00
2023-03-26T04:41:18.774Z,94176.00
2023-03-26T04:45:18.895Z,94178.00
2023-03-26T04:49:18.997Z,94164.00
2023-03-26T04:53:19.102Z,94162.00
2023-03-26T04:57:19.244Z,94156.00
2023-03-26T05:01:19.383Z,94144.00
2023-03-26T05:05:19.494Z,94139.00
2023-03-26T05:09:19.627Z,94139.00
2023-03-26T05:13:19.786Z,94139.00
2023-03-26T05:17:19.870Z,94140.00
2023-03-26T05:21:19.984Z,94152.00
2023-03-26T05:25:20.095Z,94154.00
2023-03-26T05:29:20.196Z,94150.00
2023-03-26T05:33:20.437Z,94146.00
2023-03-26T05:37:20.489Z,94144.00
2023-03-26T05:41:20.655Z,94137.00
2023-03-26T05:45:21.027Z,94135.00
2023-03-26T05:49:20.856Z,94119.00
2023-03-26T05:53:20.921Z,94117.00
2023-03-26T05:57:21.078Z,94107.00
2023-03-26T06:01:21.233Z,94095.00
2023-03-26T06:05:21.328Z,94090.00
2023-03-26T06:09:21.421Z,94086.00
2023-03-26T06:13:21.428Z,94080.00
2023-03-26T06:17:21.668Z,94072.00
2023-03-26T06:21:21.656Z,94068.00
2023-03-26T06:25:21.730Z,94068.00
2023-03-26T06:29:21.838Z,94062.00
2023-03-26T06:33:24.435Z,94052.00
2023-03-26T06:37:21.939Z,94064.00
2023-03-26T06:41:21.856Z,94050.00
2023-03-26T06:45:21.865Z,94050.00
2023-03-26T06:49:21.881Z,94046.00
2023-03-26T06:53:21.749Z,94029.00
2023-03-26T06:57:21.702Z,94033.00
2023-03-26T07:01:21.781Z,94025.00
2023-03-26T07:05:21.662Z,94017.00
2023-03-26T07:09:21.623Z,93990.00
2023-03-26T07:13:21.950Z,93980.00
2023-03-26T07:17:21.573Z,93962.00
2023-03-26T07:21:21.557Z,93948.00
2023-03-26T07:25:21.481Z,93946.00
2023-03-26T07:29:21.439Z,93958.00
2023-03-26T07:33:21.394Z,93966.00
2023-03-26T07:37:21.365Z,93958.00
2023-03-26T07:41:21.308Z,93950.00
2023-03-26T07:45:21.405Z,93948.00
2023-03-26T07:49:21.514Z,93944.00
2023-03-26T07:53:21.619Z,93909.00
2023-03-26T07:57:21.680Z,93901.00
2023-03-26T08:01:21.774Z,93876.00
2023-03-26T08:05:21.945Z,93860.00
2023-03-26T08:09:22.041Z,93848.00
2023-03-26T08:13:22.127Z,93839.00
2023-03-26T08:17:22.272Z,93841.00
2023-03-26T08:21:22.327Z,93850.00
2023-03-26T08:25:22.478Z,93845.00
2023-03-26T08:29:22.614Z,93829.00
2023-03-26T08:33:22.753Z,93819.00
2023-03-26T08:37:22.848Z,93801.00
2023-03-26T08:41:22.911Z,93794.00
2023-03-26T08:45:23.027Z,93782.00
2023-03-26T08:49:25.269Z,93782.00
2023-03-26T08:53:23.133Z,93760.00
2023-03-26T08:57:23.052Z,93750.00
2023-03-26T09:01:23.145Z,93748.00
2023-03-26T09:05:23.014Z,93739.00
2023-03-26T09:09:22.984Z,93752.00
2023-03-26T09:13:22.950Z,93744.00
2023-03-26T09:17:23.049Z,93746.00
2023-03-26T09:21:22.848Z,93756.00
2023-03-26T09:25:22.796Z,93756.00
2023-03-26T09:29:22.772Z,93762.00
2023-03-26T09:33:22.755Z,93764.00
2023-03-26T09:37:22.678Z,93752.00
2023-03-26T09:41:22.669Z,93750.00
2023-03-26T09:45:22.641Z,93741.00
2023-03-26T09:49:22.585Z,93731.00
2023-03-26T09:53:22.568Z,93717.00
2023-03-26T09:57:22.776Z,93713.00
2023-03-26T10:01:22.860Z,93707.00
2023-03-26T10:05:22.917Z,93699.00
2023-03-26T10:09:23.053Z,93692.00
2023-03-26T10:13:23.117Z,93694.00
2023-03-26T10:17:23.405Z,93688.00
2023-03-26T10:21:25.645Z,93684.00
2023-03-26T10:25:23.274Z,93672.00
2023-03-26T10:29:23.308Z,93676.00
2023-03-26T10:33:25.099Z,93678.00
2023-03-26T10:37:23.148Z,93680.00
2023-03-26T10:41:23.120Z,93678.00
2023-03-26T10:45:23.090Z,93682.00
2023-03-26T10:49:23.092Z,93678.00
2023-03-26T10:53:23.167Z,93674.00
2023-03-26T10:57:23.263Z,93668.00
2023-03-26T11:01:23.416Z,93668.00
2023-03-26T11:05:23.478Z,93672.00
2023-03-26T11:09:23.603Z,93664.00
2023-03-26T11:13:23.751Z,93658.00
2023-03-26T11:17:40.181Z,93654.00
2023-03-26T11:21:24.798Z,93643.00
2023-03-26T11:25:23.708Z,93641.00
2023-03-26T11:29:32.414Z,93637.00
2023-03-26T11:33:24.658Z,93629.00
2023-03-26T11:37:23.608Z,93623.00
2023-03-26T11:41:23.640Z,93611.00
2023-03-26T11:45:23.835Z,93607.00
2023-03-26T11:49:23.887Z,93584.00
2023-03-26T11:53:24.003Z,93574.00
2023-03-26T11:57:24.145Z,93574.00
2023-03-26T12:01:24.301Z,93566.00
2023-03-26T12:05:24.408Z,93566.00
2023-03-26T12:09:24.470Z,93560.00
2023-03-26T12:13:24.634Z,93556.00
2023-03-26T12:17:31.502Z,93541.00
2023-03-26T12:21:25.711Z,93541.00
2023-03-26T12:25:24.761Z,93541.00
2023-03-26T12:29:24.673Z,93543.00
2023-03-26T12:33:24.738Z,93554.00
2023-03-26T12:37:24.783Z,93558.00
2023-03-26T12:44:42.801Z,93554.00
2023-03-26T12:45:25.905Z,93556.00
2023-03-26T12:49:24.852Z,93553.00
2023-03-26T12:53:24.755Z,93545.00
2023-03-26T12:57:24.895Z,93576.00
2023-03-26T13:01:24.996Z,93584.00
2023-03-26T13:05:25.064Z,93594.00
2023-03-26T13:09:25.200Z,93645.00
2023-03-26T13:13:25.316Z,93650.00
2023-03-26T13:17:25.462Z,93650.00
2023-03-26T13:21:25.569Z,93637.00
2023-03-26T13:25:25.725Z,93643.00
2023-03-26T13:29:25.850Z,93649.00
2023-03-26T13:33:25.953Z,93656.00
2023-03-26T13:37:26.038Z,93650.00
2023-03-26T13:41:26.208Z,93645.00
2023-03-26T13:45:26.373Z,93635.00
2023-03-26T13:49:26.431Z,93645.00
2023-03-26T13:53:26.578Z,93645.00
2023-03-26T13:57:26.667Z,93631.00
2023-03-26T14:01:26.809Z,93629.00
2023-03-26T14:05:26.832Z,93629.00
2023-03-26T14:09:26.994Z,93637.00
2023-03-26T14:13:27.168Z,93639.00
2023-03-26T14:17:27.399Z,93637.00
2023-03-26T14:21:27.432Z,93637.00
2023-03-26T14:25:27.597Z,93641.00
2023-03-26T14:29:27.697Z,93629.00
2023-03-26T14:33:28.080Z,93629.00
2023-03-26T14:37:28.330Z,93623.00
2023-03-26T14:41:27.883Z,93617.00
2023-03-26T14:45:27.975Z,93613.00
2023-03-26T14:49:28.176Z,93605.00
2023-03-26T14:53:28.201Z,93605.00
2023-03-26T14:57:28.349Z,93629.00
2023-03-26T15:01:28.573Z,93623.00
2023-03-26T15:05:28.648Z,93633.00
2023-03-26T15:09:28.764Z,93647.00
2023-03-26T15:13:28.875Z,93639.00
2023-03-26T15:17:29.011Z,93629.00
2023-03-26T15:21:29.110Z,93631.00
2023-03-26T15:25:29.213Z,93633.00
2023-03-26T15:29:29.325Z,93633.00
2023-03-26T15:33:29.441Z,93631.00
2023-03-26T15:37:29.520Z,93605.00
2023-03-26T15:41:29.654Z,93590.00
2023-03-26T15:45:29.736Z,93592.00
2023-03-26T15:49:29.937Z,93572.00
2023-03-26T15:53:30.091Z,93553.00
2023-03-26T15:57:30.321Z,93560.00
2023-03-26T16:01:32.514Z,93564.00
2023-03-26T16:05:30.526Z,93562.00
2023-03-26T16:09:30.612Z,93556.00
2023-03-26T16:13:30.797Z,93566.00
2023-03-26T16:17:30.932Z,93562.00
2023-03-26T16:21:32.138Z,93558.00
2023-03-26T16:25:31.055Z,93568.00
2023-03-26T16:29:31.146Z,93556.00
2023-03-26T16:33:31.189Z,93531.00
2023-03-26T16:37:31.346Z,93529.00
2023-03-26T16:41:31.412Z,93517.00
2023-03-26T16:45:31.617Z,93515.00
2023-03-26T16:49:31.570Z,93500.00
2023-03-26T16:53:31.647Z,93494.00
2023-03-26T16:57:31.783Z,93507.00
2023-03-26T17:01:31.980Z,93513.00
2023-03-26T17:05:32.030Z,93529.00
2023-03-26T17:09:32.134Z,93519.00
2023-03-26T17:13:32.364Z,93519.00
2023-03-26T17:17:32.627Z,93507.00
2023-03-26T17:21:45.724Z,93521.00
2023-03-26T17:25:33.576Z,93527.00
2023-03-26T17:29:32.540Z,93517.00
2023-03-26T17:33:32.492Z,93519.00
2023-03-26T17:37:32.578Z,93525.00
2023-03-26T17:41:32.633Z,93503.00
2023-03-26T17:45:32.775Z,93505.00
2023-03-26T17:49:32.862Z,93502.00
2023-03-26T17:53:33.041Z,93519.00
2023-03-26T17:57:33.150Z,93537.00
2023-03-26T18:01:33.186Z,93547.00
2023-03-26T18:05:33.209Z,93553.00
2023-03-26T18:09:33.297Z,93560.00
2023-03-26T18:13:33.421Z,93570.00
2023-03-26T18:17:33.512Z,93576.00
2023-03-26T18:21:33.574Z,93603.00
2023-03-26T18:25:33.709Z,93551.00
2023-03-26T18:29:33.841Z,93527.00
2023-03-26T18:33:34.013Z,93525.00
2023-03-26T18:37:34.113Z,93541.00
2023-03-26T18:41:34.204Z,93531.00
2023-03-26T18:45:34.311Z,93519.00
2023-03-26T18:49:34.386Z,93523.00
2023-03-26T18:53:34.544Z,93521.00
2023-03-26T18:57:34.687Z,93521.00
2023-03-26T19:01:34.784Z,93527.00
2023-03-26T19:05:34.866Z,93537.00
2023-03-26T19:09:34.945Z,93535.00
2023-03-26T19:13:35.022Z,93527.00
2023-03-26T19:17:35.298Z,93531.00
2023-03-26T19:21:35.240Z,93545.00
2023-03-26T19:25:35.366Z,93549.00
2023-03-26T19:29:35.407Z,93556.00
2023-03-26T19:33:35.564Z,93554.00
2023-03-26T19:37:35.722Z,93553.00
2023-03-26T19:41:35.946Z,93549.00
2023-03-26T19:45:36.044Z,93551.00
2023-03-26T19:49:36.098Z,93545.00
2023-03-26T19:53:36.264Z,93535.00
2023-03-26T19:57:36.364Z,93535.00
2023-03-26T20:01:36.514Z,93537.00
2023-03-26T20:05:36.618Z,93531.00
2023-03-26T20:09:36.648Z,93527.00
2023-03-26T20:13:36.789Z,93525.00
2023-03-26T20:17:36.917Z,93527.00
2023-03-26T20:21:37.023Z,93535.00
2023-03-26T20:25:37.147Z,93539.00
2023-03-26T20:29:37.245Z,93543.00
2023-03-26T20:33:37.366Z,93543.00
2023-03-26T20:37:37.412Z,93541.00
2023-03-26T20:41:37.466Z,93543.00
2023-03-26T20:45:37.619Z,93539.00
2023-03-26T20:49:37.804Z,93537.00
2023-03-26T20:53:37.847Z,93533.00
2023-03-26T20:57:37.960Z,93539.00
2023-03-26T21:01:38.335Z,93543.00
2023-03-26T21:05:38.209Z,93535.00
2023-03-26T21:09:38.342Z,93535.00
2023-03-26T21:13:38.461Z,93537.00
2023-03-26T21:17:38.635Z,93533.00
2023-03-26T21:21:38.707Z,93541.00
2023-03-26T21:25:38.849Z,93537.00
2023-03-26T21:29:39.023Z,93533.00
2023-03-26T21:33:39.169Z,93539.00
2023-03-26T21:37:39.372Z,93527.00
2023-03-26T21:41:39.498Z,93523.00
2023-03-26T21:45:39.656Z,93531.00
2023-03-26T21:49:39.730Z,93519.00
2023-03-26T21:53:39.785Z,93515.00
2023-03-26T21:57:39.925Z,93519.00
2023-03-26T22:01:40.097Z,93517.00
2023-03-26T22:05:40.211Z,93517.00
2023-03-26T22:09:40.324Z,93517.00
2023-03-26T22:13:40.389Z,93515.00
2023-03-26T22:17:40.493Z,93517.00
2023-03-26T22:21:40.673Z,93509.00
2023-03-26T22:25:40.777Z,93505.00
2023-03-26T22:29:40.888Z,93503.00
2023-03-26T22:33:41.006Z,93502.00
2023-03-26T22:37:41.084Z,93503.00
2023-03-26T22:41:41.262Z,93500.00
2023-03-26T22:45:41.307Z,93490.00
2023-03-26T22:49:41.378Z,93502.00
2023-03-26T22:53:41.515Z,93502.00
2023-03-26T22:57:41.648Z,93488.00
2023-03-26T23:01:41.810Z,93488.00
2023-03-26T23:05:41.875Z,93480.00
2023-03-26T23:09:42.061Z,93488.00
2023-03-26T23:13:42.114Z,93494.00
2023-03-26T23:17:42.229Z,93490.00
2023-03-26T23:21:42.375Z,93488.00
2023-03-26T23:25:42.526Z,93494.00
2023-03-26T23:29:42.624Z,93486.00
2023-03-26T23:33:42.718Z,93488.00
2023-03-26T23:37:42.811Z,93484.00
2023-03-26T23:41:43.009Z,93488.00
2023-03-26T23:45:43.126Z,93474.00
2023-03-26T23:49:43.150Z,93484.00
2023-03-26T23:53:43.323Z,93486.00
2023-03-26T23:57:43.373Z,93494.00
